createdAt,value
2022-11-05T00:01:02.791Z,34.87
2022-11-05T00:03:48.693Z,39.80
2022-11-05T00:06:34.907Z,40.30
2022-11-05T00:09:21.142Z,40.87
2022-11-05T00:12:07.101Z,48.03
2022-11-05T00:14:53.254Z,41.57
2022-11-05T00:17:21.204Z,42.10
2022-11-05T00:19:48.721Z,43.83
2022-11-05T00:22:34.569Z,46.00
2022-11-05T00:25:17.347Z,45.27
2022-11-05T00:27:47.612Z,48.47
2022-11-05T00:30:22.033Z,48.97
2022-11-05T00:32:51.755Z,44.40
2022-11-05T00:35:22.066Z,43.23
2022-11-05T00:37:50.613Z,39.90
2022-11-05T00:40:18.491Z,32.17
2022-11-05T00:43:04.421Z,32.83
2022-11-05T00:45:32.472Z,36.30
2022-11-05T00:48:18.336Z,34.10
2022-11-05T00:50:46.114Z,37.27
2022-11-05T00:53:13.886Z,34.80
2022-11-05T00:55:44.750Z,34.73
2022-11-05T00:58:23.258Z,34.87
2022-11-05T01:00:53.893Z,34.73
2022-11-05T01:03:26.580Z,32.43
2022-11-05T01:06:08.052Z,40.90
2022-11-05T01:08:36.548Z,41.43
2022-11-05T01:11:33.223Z,43.03
2022-11-05T01:14:07.836Z,43.67
2022-11-05T01:16:39.308Z,49.50
2022-11-05T01:19:10.162Z,49.70
2022-11-05T01:21:37.743Z,49.00
2022-11-05T01:24:05.773Z,45.70
2022-11-05T01:26:33.300Z,46.73
2022-11-05T01:29:00.892Z,45.40
2022-11-05T01:31:29.215Z,43.93
2022-11-05T01:33:56.669Z,46.73
2022-11-05T01:36:24.219Z,46.20
2022-11-05T01:38:51.714Z,42.63
2022-11-05T01:41:19.306Z,41.43
2022-11-05T01:43:51.050Z,35.83
2022-11-05T01:46:24.117Z,32.73
2022-11-05T01:48:57.271Z,29.00
2022-11-05T01:51:29.085Z,27.97
2022-11-05T01:54:04.924Z,27.00
2022-11-05T01:56:43.930Z,28.53
2022-11-05T01:59:30.706Z,26.27
2022-11-05T02:01:59.349Z,25.40
2022-11-05T02:05:07.643Z,24.57
2022-11-05T02:07:35.270Z,25.43
2022-11-05T02:10:13.828Z,25.73
2022-11-05T02:12:45.110Z,27.73
2022-11-05T02:15:52.059Z,25.60
2022-11-05T02:19:20.947Z,24.53
2022-11-05T02:22:38.643Z,24.13
2022-11-05T02:25:30.185Z,21.73
2022-11-05T02:54:49.829Z,23.53
2022-11-05T02:57:22.012Z,25.30
2022-11-05T02:59:49.548Z,27.20
2022-11-05T03:02:17.346Z,29.43
2022-11-05T03:04:44.990Z,30.30
2022-11-05T03:07:18.163Z,33.10
2022-11-05T03:10:01.794Z,29.10
2022-11-05T03:13:06.261Z,29.80
2022-11-05T03:15:57.654Z,31.10
2022-11-05T03:18:52.109Z,32.53
2022-11-05T03:21:42.595Z,33.30
2022-11-05T03:24:19.196Z,32.80
2022-11-05T03:27:01.154Z,28.07
2022-11-05T03:29:43.675Z,27.60
2022-11-05T03:32:13.265Z,25.73
2022-11-05T03:34:52.131Z,25.63
2022-11-05T03:37:24.259Z,24.47
2022-11-05T03:39:56.764Z,25.27
2022-11-05T03:42:32.284Z,25.30
2022-11-05T03:45:06.169Z,24.27
2022-11-05T03:47:39.852Z,22.57
2022-11-05T03:50:41.517Z,23.93
2022-11-05T03:53:26.453Z,23.27
2022-11-05T03:56:08.190Z,24.70
2022-11-05T03:58:37.154Z,24.47
2022-11-05T04:01:05.015Z,24.20
2022-11-05T04:03:36.380Z,24.57
2022-11-05T04:06:25.060Z,24.77
2022-11-05T04:09:11.571Z,24.87
2022-11-05T04:11:57.438Z,24.50
2022-11-05T04:14:26.294Z,23.87
2022-11-05T04:17:06.387Z,23.60
2022-11-05T04:20:00.859Z,25.43
2022-11-05T04:22:50.296Z,25.07
2022-11-05T04:25:19.566Z,24.87
2022-11-05T04:27:47.617Z,25.97
2022-11-05T04:30:20.002Z,26.63
2022-11-05T04:33:15.308Z,27.20
2022-11-05T04:35:47.658Z,21.97
2022-11-05T04:38:18.670Z,22.57
2022-11-05T04:40:47.767Z,21.17
2022-11-05T04:43:19.201Z,22.53
2022-11-05T04:45:48.441Z,23.50
2022-11-05T04:48:15.975Z,22.63
2022-11-05T04:50:43.413Z,23.13
2022-11-05T04:53:11.145Z,22.07
2022-11-05T04:55:38.802Z,22.70
2022-11-05T04:58:06.482Z,23.03
2022-11-05T05:00:33.995Z,20.97
2022-11-05T05:03:01.511Z,22.83
2022-11-05T05:05:30.577Z,21.23
2022-11-05T05:08:05.450Z,22.30
2022-11-05T05:10:33.500Z,21.63
2022-11-05T05:13:00.957Z,24.60
2022-11-05T05:15:28.574Z,24.00
2022-11-05T05:17:56.377Z,28.27
2022-11-05T05:20:42.303Z,35.93
2022-11-05T05:23:11.571Z,38.53
2022-11-05T05:25:40.017Z,31.83
2022-11-05T05:28:07.516Z,33.90
2022-11-05T05:30:35.345Z,28.33
2022-11-05T05:33:04.439Z,25.43
2022-11-05T05:35:32.028Z,23.93
2022-11-05T05:37:59.471Z,45.77
2022-11-05T05:40:27.573Z,43.57
2022-11-05T05:42:56.037Z,49.37
2022-11-05T05:45:23.518Z,51.57
2022-11-05T05:47:51.022Z,52.50
2022-11-05T05:50:18.455Z,65.67
2022-11-05T05:52:52.902Z,72.23
2022-11-05T05:55:20.506Z,75.50
2022-11-05T05:57:47.935Z,103.77
2022-11-05T06:00:15.898Z,129.03
2022-11-05T06:02:43.506Z,126.33
2022-11-05T06:05:11.222Z,92.60
2022-11-05T06:07:38.666Z,98.83
2022-11-05T06:10:06.859Z,134.97
2022-11-05T06:12:34.509Z,143.83
2022-11-05T06:15:02.074Z,144.73
2022-11-05T06:17:29.521Z,133.70
2022-11-05T06:19:57.014Z,120.90
2022-11-05T06:22:24.840Z,92.77
2022-11-05T06:24:52.338Z,76.77
2022-11-05T06:27:19.779Z,71.13
2022-11-05T06:29:47.226Z,56.73
2022-11-05T06:32:14.662Z,35.67
2022-11-05T06:34:42.133Z,31.63
2022-11-05T06:37:09.606Z,25.40
2022-11-05T06:39:37.122Z,27.33
2022-11-05T06:42:17.945Z,23.80
2022-11-05T06:44:46.202Z,24.13
2022-11-05T06:47:13.670Z,23.90
2022-11-05T06:49:41.303Z,23.27
2022-11-05T06:52:09.282Z,22.73
2022-11-05T06:54:37.135Z,22.17
2022-11-05T06:57:06.168Z,21.60
2022-11-05T06:59:34.496Z,18.00
2022-11-05T07:02:03.341Z,32.90
2022-11-05T07:04:30.894Z,21.13
2022-11-05T07:07:01.191Z,21.70
2022-11-05T07:09:29.999Z,27.93
2022-11-05T07:11:57.443Z,18.20
2022-11-05T07:14:24.902Z,18.30
2022-11-05T07:16:52.396Z,16.13
2022-11-05T07:19:19.928Z,15.77
2022-11-05T07:21:48.699Z,18.97
2022-11-05T07:24:16.331Z,18.43
2022-11-05T07:26:43.974Z,18.93
2022-11-05T07:29:11.497Z,20.17
2022-11-05T07:31:39.019Z,19.97
2022-11-05T07:34:06.624Z,19.20
2022-11-05T07:36:34.652Z,20.37
2022-11-05T07:39:02.436Z,20.60
2022-11-05T07:41:29.910Z,21.70
2022-11-05T07:43:57.585Z,21.63
2022-11-05T07:46:25.126Z,20.57
2022-11-05T07:48:52.712Z,21.43
2022-11-05T07:51:20.204Z,22.27
2022-11-05T07:53:48.568Z,25.53
2022-11-05T07:56:16.812Z,21.90
2022-11-05T07:58:44.415Z,21.03
2022-11-05T08:01:12.104Z,20.17
2022-11-05T08:03:39.758Z,19.77
2022-11-05T08:06:07.778Z,24.73
2022-11-05T08:08:36.189Z,26.50
2022-11-05T08:11:06.640Z,26.13
2022-11-05T08:13:35.148Z,28.13
2022-11-05T08:16:03.917Z,29.87
2022-11-05T08:18:33.278Z,29.93
2022-11-05T08:21:06.043Z,28.43
2022-11-05T08:23:34.318Z,29.23
2022-11-05T08:26:04.391Z,31.10
2022-11-05T08:28:32.114Z,30.47
2022-11-05T08:30:59.803Z,29.87
2022-11-05T08:33:29.491Z,25.93
2022-11-05T08:35:57.022Z,25.30
2022-11-05T08:38:24.426Z,24.50
2022-11-05T08:40:59.166Z,24.67
2022-11-05T08:43:27.357Z,26.03
2022-11-05T08:45:55.158Z,27.30
2022-11-05T08:48:22.759Z,24.30
2022-11-05T08:50:50.571Z,24.27
2022-11-05T08:53:18.480Z,23.93
2022-11-05T08:55:47.835Z,23.33
2022-11-05T08:58:17.410Z,21.60
2022-11-05T09:00:48.905Z,21.70
2022-11-05T09:03:17.765Z,22.03
2022-11-05T09:05:45.393Z,21.60
2022-11-05T09:08:18.948Z,20.57
2022-11-05T09:10:48.088Z,21.87
2022-11-05T09:13:19.327Z,23.20
2022-11-05T09:15:49.324Z,21.57
2022-11-05T09:18:18.854Z,22.77
2022-11-05T09:20:47.121Z,22.30
2022-11-05T09:23:15.861Z,22.77
2022-11-05T09:25:44.536Z,21.90
2022-11-05T09:28:17.329Z,23.87
2022-11-05T09:30:51.678Z,22.00
2022-11-05T09:33:23.614Z,23.03
2022-11-05T09:35:52.052Z,21.20
2022-11-05T09:38:20.066Z,22.70
2022-11-05T09:41:04.246Z,22.83
2022-11-05T09:43:45.082Z,21.70
2022-11-05T09:46:27.517Z,22.07
2022-11-05T09:49:04.500Z,22.00
2022-11-05T09:51:33.177Z,22.53
2022-11-05T09:54:05.382Z,25.17
2022-11-05T09:56:37.649Z,21.83
2022-11-05T09:59:28.117Z,22.17
2022-11-05T10:02:12.095Z,23.20
2022-11-05T10:04:40.523Z,23.57
2022-11-05T10:07:15.609Z,22.87
2022-11-05T10:09:48.797Z,23.23
2022-11-05T10:12:50.500Z,24.80
2022-11-05T10:15:26.546Z,24.63
2022-11-05T10:18:20.112Z,24.40
2022-11-05T10:20:50.034Z,24.43
2022-11-05T10:23:21.573Z,24.07
2022-11-05T10:26:04.224Z,31.70
2022-11-05T10:28:34.374Z,22.77
2022-11-05T10:31:09.519Z,21.33
2022-11-05T10:33:57.107Z,23.17
2022-11-05T10:36:38.010Z,22.80
2022-11-05T10:39:18.120Z,21.90
2022-11-05T10:41:52.896Z,20.83
2022-11-05T10:44:34.399Z,20.97
2022-11-05T10:48:16.838Z,20.73
2022-11-05T10:50:45.633Z,21.23
2022-11-05T10:53:22.114Z,20.60
2022-11-05T10:55:54.314Z,18.97
2022-11-05T10:58:30.201Z,17.67
2022-11-05T11:00:57.872Z,17.87
2022-11-05T11:03:48.771Z,18.33
2022-11-05T11:06:28.199Z,18.97
2022-11-05T11:09:17.530Z,16.73
2022-11-05T11:11:46.038Z,16.13
2022-11-05T11:14:13.560Z,24.87
2022-11-05T11:16:47.654Z,17.43
2022-11-05T11:19:35.136Z,17.00
2022-11-05T11:22:05.697Z,16.53
2022-11-05T11:24:52.315Z,15.93
2022-11-05T11:27:28.534Z,16.80
2022-11-05T11:30:02.551Z,17.60
2022-11-05T11:32:40.178Z,14.70
2022-11-05T11:35:26.007Z,15.20
2022-11-05T11:37:57.150Z,14.65
2022-11-05T11:40:35.549Z,14.57
2022-11-05T11:43:28.392Z,14.35
2022-11-05T11:46:04.847Z,17.85
2022-11-05T11:48:37.070Z,16.27
2022-11-05T11:51:30.462Z,16.80
2022-11-05T11:54:02.837Z,17.35
2022-11-05T11:56:43.132Z,16.42
2022-11-05T11:59:46.890Z,16.13
2022-11-05T12:02:44.254Z,16.00
2022-11-05T12:05:59.588Z,15.70
2022-11-05T12:09:11.173Z,15.80
2022-11-05T12:12:00.865Z,15.52
2022-11-05T12:15:01.740Z,14.85
2022-11-05T12:18:02.107Z,15.32
2022-11-05T12:20:48.033Z,15.13
2022-11-05T12:23:37.120Z,15.63
2022-11-05T12:26:25.761Z,15.13
2022-11-05T12:29:23.876Z,14.52
2022-11-05T12:32:12.932Z,15.32
2022-11-05T12:35:44.131Z,14.82
2022-11-05T12:38:58.244Z,15.60
2022-11-05T12:42:35.227Z,18.13
2022-11-05T12:45:26.131Z,14.98
2022-11-05T12:48:16.659Z,14.87
2022-11-05T12:50:57.181Z,14.53
2022-11-05T12:53:37.563Z,16.63
2022-11-05T12:56:33.682Z,16.20
2022-11-05T12:59:25.935Z,15.93
2022-11-05T13:02:15.337Z,16.55
2022-11-05T13:05:10.081Z,17.05
2022-11-05T13:08:05.321Z,17.77
2022-11-05T13:10:51.131Z,16.40
2022-11-05T13:13:51.985Z,17.90
2022-11-05T13:16:39.851Z,16.13
2022-11-05T13:19:32.546Z,16.17
2022-11-05T13:22:30.451Z,15.48
2022-11-05T13:25:19.611Z,15.23
2022-11-05T13:28:35.628Z,14.88
2022-11-05T13:31:06.785Z,15.88
2022-11-05T13:33:44.744Z,16.38
2022-11-05T13:36:52.491Z,16.33
2022-11-05T13:39:24.367Z,17.20
2022-11-05T13:42:35.224Z,15.83
2022-11-05T13:45:39.056Z,16.80
2022-11-05T13:48:48.412Z,16.90
2022-11-05T13:51:40.511Z,16.77
2022-11-05T13:54:29.552Z,16.53
2022-11-05T13:57:26.210Z,16.73
2022-11-05T14:00:17.596Z,17.23
2022-11-05T14:02:55.324Z,18.03
2022-11-05T14:05:35.328Z,18.60
2022-11-05T14:08:15.334Z,19.00
2022-11-05T14:11:00.685Z,18.67
2022-11-05T14:14:06.866Z,19.83
2022-11-05T14:16:57.220Z,19.67
2022-11-05T14:19:33.446Z,19.17
2022-11-05T14:22:01.784Z,22.07
2022-11-05T14:24:38.614Z,21.30
2022-11-05T14:27:10.507Z,22.60
2022-11-05T14:29:44.771Z,23.77
2022-11-05T14:32:22.071Z,24.43
2022-11-05T14:35:17.207Z,22.83
2022-11-05T14:37:54.056Z,22.93
2022-11-05T14:40:42.568Z,23.83
2022-11-05T14:43:16.100Z,23.10
2022-11-05T14:46:17.371Z,22.57
2022-11-05T14:49:09.310Z,25.77
2022-11-05T14:51:44.453Z,30.30
2022-11-05T14:54:34.814Z,32.97
2022-11-05T14:57:03.522Z,37.80
2022-11-05T14:59:32.487Z,35.70
2022-11-05T15:02:20.871Z,35.07
2022-11-05T15:04:51.040Z,34.60
2022-11-05T15:07:24.374Z,33.43
2022-11-05T15:09:54.839Z,36.20
2022-11-05T15:12:50.845Z,34.53
2022-11-05T15:15:39.743Z,38.13
2022-11-05T15:18:17.854Z,41.67
2022-11-05T15:20:52.583Z,42.40
2022-11-05T15:23:31.217Z,49.77
2022-11-05T15:26:04.657Z,62.87
2022-11-05T15:28:51.156Z,65.47
2022-11-05T15:31:44.151Z,65.97
2022-11-05T15:34:32.503Z,60.47
2022-11-05T15:37:25.441Z,53.87
2022-11-05T15:39:57.684Z,83.47
2022-11-05T15:42:28.512Z,70.37
2022-11-05T15:45:00.490Z,83.77
2022-11-05T15:47:36.114Z,71.00
2022-11-05T15:50:17.367Z,47.80
2022-11-05T15:52:56.699Z,57.27
2022-11-05T15:55:31.272Z,39.87
2022-11-05T15:58:07.460Z,32.53
2022-11-05T16:00:39.121Z,29.77
2022-11-05T16:03:28.984Z,41.53
2022-11-05T16:05:57.493Z,46.60
2022-11-05T16:08:33.510Z,37.63
2022-11-05T16:11:02.736Z,30.30
2022-11-05T16:13:39.551Z,39.63
2022-11-05T16:16:19.420Z,38.60
2022-11-05T16:18:50.474Z,43.57
2022-11-05T16:21:23.737Z,45.57
2022-11-05T16:24:01.475Z,37.30
2022-11-05T16:27:01.810Z,40.47
2022-11-05T16:29:41.228Z,30.93
2022-11-05T16:32:31.572Z,31.13
2022-11-05T16:35:09.770Z,30.03
2022-11-05T16:37:47.737Z,28.83
2022-11-05T16:40:25.947Z,29.87
2022-11-05T16:42:55.401Z,30.70
2022-11-05T16:45:25.542Z,33.23
2022-11-05T16:47:53.380Z,30.10
2022-11-05T16:50:30.470Z,29.77
2022-11-05T16:53:01.804Z,27.93
2022-11-05T16:55:32.298Z,26.57
2022-11-05T16:58:00.704Z,27.27
2022-11-05T17:00:36.676Z,24.97
2022-11-05T17:03:08.215Z,26.03
2022-11-05T17:05:38.140Z,26.50
2022-11-05T17:08:09.260Z,25.47
2022-11-05T17:10:41.142Z,25.77
2022-11-05T17:13:18.782Z,25.03
2022-11-05T17:16:16.168Z,24.83
2022-11-05T17:18:46.908Z,24.97
2022-11-05T17:21:16.725Z,25.60
2022-11-05T17:23:47.271Z,25.87
2022-11-05T17:26:22.959Z,25.53
2022-11-05T17:28:55.322Z,26.50
2022-11-05T17:31:23.173Z,25.17
2022-11-05T17:33:50.862Z,26.60
2022-11-05T17:36:21.289Z,26.87
2022-11-05T17:38:55.273Z,26.63
2022-11-05T17:41:25.670Z,29.27
2022-11-05T17:43:58.578Z,40.57
2022-11-05T17:46:27.450Z,38.50
2022-11-05T17:48:56.317Z,37.83
2022-11-05T17:51:24.074Z,38.77
2022-11-05T17:53:54.541Z,35.70
2022-11-05T17:56:33.846Z,39.67
2022-11-05T17:59:03.830Z,24.37
2022-11-05T18:01:36.038Z,20.40
2022-11-05T18:04:08.888Z,21.60
2022-11-05T18:06:39.694Z,21.40
2022-11-05T18:09:11.050Z,21.53
2022-11-05T18:11:40.728Z,21.40
2022-11-05T18:14:12.206Z,21.77
2022-11-05T18:16:39.961Z,21.77
2022-11-05T18:19:10.566Z,23.70
2022-11-05T18:21:45.207Z,22.13
2022-11-05T18:24:12.980Z,22.43
2022-11-05T18:26:40.670Z,23.70
2022-11-05T18:29:09.057Z,29.27
2022-11-05T18:31:36.880Z,36.77
2022-11-05T18:34:05.316Z,30.47
2022-11-05T18:36:36.059Z,28.93
2022-11-05T18:39:07.879Z,27.03
2022-11-05T18:41:37.159Z,30.03
2022-11-05T18:44:06.025Z,34.80
2022-11-05T18:46:57.073Z,30.43
2022-11-05T18:49:24.131Z,33.13
2022-11-05T18:51:51.902Z,30.73
2022-11-05T18:54:21.659Z,29.87
2022-11-05T18:56:52.064Z,30.20
2022-11-05T18:59:38.613Z,30.27
2022-11-05T19:02:10.931Z,46.03
2022-11-05T19:04:39.099Z,51.23
2022-11-05T19:07:10.897Z,50.83
2022-11-05T19:09:40.641Z,51.70
2022-11-05T19:12:10.422Z,52.33
2022-11-05T19:14:38.270Z,52.60
2022-11-05T19:17:06.116Z,51.63
2022-11-05T19:19:33.944Z,54.03
2022-11-05T19:22:05.304Z,56.03
2022-11-05T19:24:38.948Z,55.33
2022-11-05T19:27:06.735Z,52.27
2022-11-05T19:29:37.157Z,51.87
2022-11-05T19:32:05.234Z,49.50
2022-11-05T19:34:33.134Z,45.53
2022-11-05T19:37:01.437Z,41.87
2022-11-05T19:39:29.378Z,42.03
2022-11-05T19:42:03.767Z,41.47
2022-11-05T19:44:32.041Z,41.27
2022-11-05T19:46:59.822Z,40.80
2022-11-05T19:49:28.819Z,36.77
2022-11-05T19:51:58.456Z,35.67
2022-11-05T19:54:26.424Z,32.47
2022-11-05T19:56:56.500Z,27.27
2022-11-05T19:59:25.737Z,19.50
2022-11-05T20:01:53.550Z,18.50
2022-11-05T20:04:23.369Z,10.53
2022-11-05T20:06:54.649Z,10.63
2022-11-05T20:09:23.270Z,9.13
2022-11-05T20:12:14.146Z,7.23
2022-11-05T20:14:41.957Z,7.30
2022-11-05T20:17:13.010Z,7.30
2022-11-05T20:19:47.960Z,6.90
2022-11-05T20:22:15.758Z,6.50
2022-11-05T20:24:43.616Z,6.30
2022-11-05T20:27:14.023Z,5.87
2022-11-05T20:29:41.908Z,5.90
2022-11-05T20:32:12.631Z,6.70
2022-11-05T20:34:40.580Z,6.40
2022-11-05T20:37:08.604Z,6.20
2022-11-05T20:39:39.371Z,6.27
2022-11-05T20:42:07.713Z,6.07
2022-11-05T20:44:36.031Z,6.10
2022-11-05T20:47:03.802Z,7.00
2022-11-05T20:49:31.668Z,22.43
2022-11-05T20:52:02.282Z,14.83
2022-11-05T20:54:30.038Z,14.33
2022-11-05T20:56:59.050Z,8.00
2022-11-05T20:59:28.729Z,7.37
2022-11-05T21:01:58.637Z,7.23
2022-11-05T21:04:31.254Z,6.43
2022-11-05T21:06:59.044Z,7.23
2022-11-05T21:09:28.823Z,6.17
2022-11-05T21:12:11.983Z,6.70
2022-11-05T21:14:44.480Z,5.80
2022-11-05T21:17:14.859Z,6.47
2022-11-05T21:19:45.692Z,6.67
2022-11-05T21:22:17.220Z,6.60
2022-11-05T21:24:46.529Z,6.03
2022-11-05T21:27:14.285Z,6.03
2022-11-05T21:29:42.521Z,6.10
2022-11-05T21:32:13.741Z,5.97
2022-11-05T21:34:42.582Z,6.70
2022-11-05T21:37:11.392Z,6.60
2022-11-05T21:39:42.604Z,6.33
2022-11-05T21:42:10.343Z,6.23
2022-11-05T21:44:38.068Z,6.33
2022-11-05T21:47:06.027Z,6.57
2022-11-05T21:49:36.122Z,6.73
2022-11-05T21:52:24.969Z,6.43
2022-11-05T21:55:11.218Z,6.17
2022-11-05T21:57:58.554Z,6.97
2022-11-05T22:00:26.464Z,6.17
2022-11-05T22:02:58.761Z,6.27
2022-11-05T22:05:28.054Z,6.10
2022-11-05T22:07:56.958Z,6.83
2022-11-05T22:10:24.852Z,6.30
2022-11-05T22:12:52.523Z,6.50
2022-11-05T22:15:20.380Z,6.50
2022-11-05T22:17:51.995Z,6.20
2022-11-05T22:20:22.599Z,7.70
2022-11-05T22:22:50.474Z,7.33
2022-11-05T22:25:18.322Z,7.23
2022-11-05T22:27:46.315Z,8.40
2022-11-05T22:30:14.882Z,8.63
2022-11-05T22:32:42.765Z,9.43
2022-11-05T22:35:10.908Z,9.13
2022-11-05T22:37:38.676Z,9.70
2022-11-05T22:40:07.113Z,12.00
2022-11-05T22:42:34.929Z,8.90
2022-11-05T22:45:02.871Z,9.77
2022-11-05T22:47:30.531Z,9.27
2022-11-05T22:49:58.542Z,9.30
2022-11-05T22:52:27.884Z,8.83
2022-11-05T22:54:55.595Z,8.37
2022-11-05T22:57:23.273Z,8.13
2022-11-05T22:59:51.467Z,7.50
2022-11-05T23:02:19.360Z,7.83
2022-11-05T23:04:47.247Z,6.67
2022-11-05T23:07:33.568Z,7.50
2022-11-05T23:10:20.022Z,7.57
2022-11-05T23:12:48.264Z,6.87
2022-11-05T23:15:34.205Z,6.63
2022-11-05T23:18:20.953Z,7.50
2022-11-05T23:21:07.009Z,6.63
2022-11-05T23:23:53.672Z,7.07
2022-11-05T23:26:40.175Z,6.47
2022-11-05T23:29:07.900Z,7.20
2022-11-05T23:31:53.939Z,7.40
2022-11-05T23:34:21.600Z,6.87
2022-11-05T23:37:09.184Z,6.90
2022-11-05T23:39:41.402Z,6.83
2022-11-05T23:42:29.173Z,7.17
2022-11-05T23:45:15.611Z,7.63
2022-11-05T23:48:02.627Z,7.33
2022-11-05T23:50:35.620Z,7.33
2022-11-05T23:53:07.451Z,7.90
2022-11-05T23:55:35.685Z,7.53
2022-11-05T23:58:03.346Z,7.03
